sensor_id;sensor_type;location;lat;lon;timestamp;pressure;altitude;pressure_sealevel;temperature;humidity
46382;BME280;66809;52.974;-2.514;2023-06-24T00:01:51;1014.5263988755349;;;18.34769865574204;40.78406668077614
46382;BME280;66809;52.974;-2.514;2023-06-24T00:03:51;1014.5329164910712;;;18.346693195560558;40.798620595299894
46382;BME280;66809;52.974;-2.514;2023-06-24T00:05:51;1014.5420839319407;;;18.349236773991493;40.8168623103064
46382;BME280;66809;52.974;-2.514;2023-06-24T00:07:51;1014.5499468127088;;;18.33850891528811;40.84288463278502
46382;BME280;66809;52.974;-2.514;2023-06-24T00:09:51;1014.5577684505697;;;18.33179511700269;40.86980477885642
46382;BME280;66809;52.974;-2.514;2023-06-24T00:11:51;1014.5639469811457;;;18.32140091083967;40.900915954364244
46382;BME280;66809;52.974;-2.514;2023-06-24T00:13:51;1014.5694472113258;;;18.31870711459618;40.93532077285461
46382;BME280;66809;52.974;-2.514;2023-06-24T00:15:51;1014.5738997493997;;;18.318410971568937;40.96553994206104
46382;BME280;66809;52.974;-2.514;2023-06-24T00:17:51;1014.576215696734;;;18.305495933736406;41.00084672105251
46382;BME280;66809;52.974;-2.514;2023-06-24T00:19:51;1014.5778703483035;;;18.296989883947244;41.03296563129631
46382;BME280;66809;52.974;-2.514;2023-06-24T00:21:52;1014.5791768281065;;;18.289038415530406;41.06059600608603
46382;BME280;66809;52.974;-2.514;2023-06-24T00:23:51;1014.5820760822718;;;18.284557688761588;41.08733902672209
46382;BME280;66809;52.974;-2.514;2023-06-24T00:25:51;1014.5858749181903;;;18.273287124183117;41.11587594402589
46382;BME280;66809;52.974;-2.514;2023-06-24T00:27:51;1014.5893035928535;;;18.270495768117097;41.14670294277319
46382;BME280;66809;52.974;-2.514;2023-06-24T00:29:51;1014.5938348047813;;;18.2602310820066;41.18151218726154
46382;BME280;66809;52.974;-2.514;2023-06-24T00:31:51;1014.5979877342693;;;18.235016853848617;41.210950106427475
46382;BME280;66809;52.974;-2.514;2023-06-24T00:33:51;1014.6013577746412;;;18.22427607273224;41.24287799969306
46382;BME280;66809;52.974;-2.514;2023-06-24T00:35:51;1014.6038860763099;;;18.206342116530166;41.27899841636133
46382;BME280;66809;52.974;-2.514;2023-06-24T00:37:51;1014.6081952746092;;;18.192881298457394;41.311323815952534
46382;BME280;66809;52.974;-2.514;2023-06-24T00:39:51;1014.6137569559343;;;18.19225497733827;41.349530402829025
46382;BME280;66809;52.974;-2.514;2023-06-24T00:41:51;1014.6211750709338;;;18.18442954070652;41.38294780843713
46382;BME280;66809;52.974;-2.514;2023-06-24T00:43:51;1014.6281549647612;;;18.188819665403084;41.41865937698294
46382;BME280;66809;52.974;-2.514;2023-06-24T00:45:52;1014.6349670862162;;;18.181937801369205;41.448083933175404
46382;BME280;66809;52.974;-2.514;2023-06-24T00:47:52;1014.6418458444738;;;18.182918462601613;41.466435577952296
46382;BME280;66809;52.974;-2.514;2023-06-24T00:49:51;1014.6496374040777;;;18.180164817883917;41.486170482048195
46382;BME280;66809;52.974;-2.514;2023-06-24T00:51:51;1014.6585877382091;;;18.182604081441625;41.49851975347908
46382;BME280;66809;52.974;-2.514;2023-06-24T00:53:51;1014.6674206177747;;;18.187026397647415;41.50368774606638
46382;BME280;66809;52.974;-2.514;2023-06-24T00:55:52;1014.6747587237755;;;18.202739969536683;41.51174413987301
46382;BME280;66809;52.974;-2.514;2023-06-24T00:57:52;1014.6806730335187;;;18.20636401561649;41.52060166073654
46382;BME280;66809;52.974;-2.514;2023-06-24T00:59:51;1014.686383075517;;;18.21248675258042;41.52437883356581
46382;BME280;66809;52.974;-2.514;2023-06-24T01:01:51;1014.6916856661413;;;18.209967971454216;41.52815565687826
46382;BME280;66809;52.974;-2.514;2023-06-24T01:03:51;1014.6977573006506;;;18.21839306829854;41.531033816228366
46382;BME280;66809;52.974;-2.514;2023-06-24T01:05:52;1014.7026921256664;;;18.229232627253918;41.527929141672445
46382;BME280;66809;52.974;-2.514;2023-06-24T01:07:51;1014.7083312248808;;;18.243147596372737;41.52073465130406
46382;BME280;66809;52.974;-2.514;2023-06-24T01:09:52;1014.7141669425354;;;18.255796211759158;41.50984608856249
46382;BME280;66809;52.974;-2.514;2023-06-24T01:11:52;1014.7200928914298;;;18.27015899153084;41.4919794916217
46382;BME280;66809;52.974;-2.514;2023-06-24T01:13:51;1014.7274145099885;;;18.286471216008938;41.47281404075305
46382;BME280;66809;52.974;-2.514;2023-06-24T01:15:51;1014.7352683087935;;;18.29177788095483;41.45344378686755
46382;BME280;66809;52.974;-2.514;2023-06-24T01:17:54;1014.7443392357657;;;18.31964778709484;41.43886947904259
46382;BME280;66809;52.974;-2.514;2023-06-24T01:20:02;1014.7535283205088;;;18.32879244740267;41.43237480859514
46382;BME280;66809;52.974;-2.514;2023-06-24T01:22:03;1014.7622466568436;;;18.339522767479195;41.42658238524366
46382;BME280;66809;52.974;-2.514;2023-06-24T01:24:15;1014.7690564089467;;;18.339908881610864;41.429166694053045
46382;BME280;66809;52.974;-2.514;2023-06-24T01:26:21;1014.7746185343241;;;18.34718566651714;41.42686659073131
46382;BME280;66809;52.974;-2.514;2023-06-24T01:28:05;1014.7793768599953;;;18.34784025353529;41.41310160896051
46382;BME280;66809;52.974;-2.514;2023-06-24T01:30:02;1014.783463022474;;;18.36085611673416;41.386381302173184
46382;BME280;66809;52.974;-2.514;2023-06-24T01:31:53;1014.7880562452855;;;18.371258725518132;41.37401228288716
46382;BME280;66809;52.974;-2.514;2023-06-24T01:33:58;1014.7928369102208;;;18.37007597705978;41.36144760073819
46382;BME280;66809;52.974;-2.514;2023-06-24T01:35:52;1014.7968667625067;;;18.37978955698669;41.35207194658619
46382;BME280;66809;52.974;-2.514;2023-06-24T01:37:52;1014.7996773700755;;;18.387772171815627;41.345986488944625
46382;BME280;66809;52.974;-2.514;2023-06-24T01:39:57;1014.8011666618305;;;18.386746622262592;41.34388989404598
46382;BME280;66809;52.974;-2.514;2023-06-24T01:41:56;1014.7996677092372;;;18.388796894482674;41.348173384802266
46382;BME280;66809;52.974;-2.514;2023-06-24T01:43:52;1014.7985021290966;;;18.380370976950935;41.355347149448896
46382;BME280;66809;52.974;-2.514;2023-06-24T01:45:52;1014.797094850397;;;18.38369006767798;41.37129128709421
46382;BME280;66809;52.974;-2.514;2023-06-24T01:48:02;1014.7961717094827;;;18.384684056784618;41.39002488201397
46382;BME280;66809;52.974;-2.514;2023-06-24T01:49:54;1014.7935710311335;;;18.398862999524024;41.39909105911821
46382;BME280;66809;52.974;-2.514;2023-06-24T01:51:51;1014.7908194630161;;;18.397997514281386;41.41374693604104
46382;BME280;66809;52.974;-2.514;2023-06-24T01:53:54;1014.7883324244132;;;18.394308698808775;41.436281841887194
46382;BME280;66809;52.974;-2.514;2023-06-24T01:55:52;1014.7869284297794;;;18.390810279189637;41.46320098064211
46382;BME280;66809;52.974;-2.514;2023-06-24T01:57:52;1014.7874809745182;;;18.390443021574292;41.47904679619831
46382;BME280;66809;52.974;-2.514;2023-06-24T01:59:53;1014.787491520221;;;18.394226730557858;41.49339244387077
46382;BME280;66809;52.974;-2.514;2023-06-24T02:01:52;1014.7865530789652;;;18.40135227847032;41.50604580115408
46382;BME280;66809;52.974;-2.514;2023-06-24T02:03:52;1014.7855117036481;;;18.40182529991084;41.51541144950891
46382;BME280;66809;52.974;-2.514;2023-06-24T02:05:52;1014.7835858112766;;;18.404925922618542;41.533054246347625
46382;BME280;66809;52.974;-2.514;2023-06-24T02:07:53;1014.7817055500024;;;18.4034386322743;41.55319381357383
46382;BME280;66809;52.974;-2.514;2023-06-24T02:09:51;1014.7801299755954;;;18.400111134099703;41.57722553989079
46382;BME280;66809;52.974;-2.514;2023-06-24T02:11:52;1014.7793252545099;;;18.397136551566145;41.597669831575026
46382;BME280;66809;52.974;-2.514;2023-06-24T02:13:53;1014.7763527423908;;;18.396856790098774;41.61831699187888
46382;BME280;66809;52.974;-2.514;2023-06-24T02:15:52;1014.772584910314;;;18.394678001091982;41.64524953949741
46382;BME280;66809;52.974;-2.514;2023-06-24T02:17:52;1014.7672215577044;;;18.3781038646016;41.66499320508524
46382;BME280;66809;52.974;-2.514;2023-06-24T02:19:51;1014.761664897746;;;18.37592161113753;41.67057340633375
46382;BME280;66809;52.974;-2.514;2023-06-24T02:21:56;1014.756462187311;;;18.371683144121583;41.68153426771385
46382;BME280;66809;52.974;-2.514;2023-06-24T02:23:52;1014.7499186136678;;;18.376466784337868;41.68501361055208
46382;BME280;66809;52.974;-2.514;2023-06-24T02:25:52;1014.7441927932246;;;18.3808050778339;41.685401769403924
46382;BME280;66809;52.974;-2.514;2023-06-24T02:27:51;1014.7378118621317;;;18.386913890800137;41.69805567304672
46382;BME280;66809;52.974;-2.514;2023-06-24T02:29:52;1014.7310791521818;;;18.394370015380737;41.716989630372126
46382;BME280;66809;52.974;-2.514;2023-06-24T02:31:51;1014.721594707412;;;18.402697160305866;41.72864400967409
46382;BME280;66809;52.974;-2.514;2023-06-24T02:33:51;1014.7119203616046;;;18.409312604434316;41.73411357411355
46382;BME280;66809;52.974;-2.514;2023-06-24T02:35:51;1014.7010185506589;;;18.41434832730854;41.737492147518466
46382;BME280;66809;52.974;-2.514;2023-06-24T02:37:51;1014.6883481100485;;;18.405924875104233;41.74197116573801
46382;BME280;66809;52.974;-2.514;2023-06-24T02:39:51;1014.6749720537571;;;18.41304201575911;41.74375906023032
46382;BME280;66809;52.974;-2.514;2023-06-24T02:41:51;1014.661047890208;;;18.424041638669134;41.74275836300226
46382;BME280;66809;52.974;-2.514;2023-06-24T02:43:51;1014.6455253410141;;;18.42961020880346;41.74405343258745
46382;BME280;66809;52.974;-2.514;2023-06-24T02:45:52;1014.6298120013937;;;18.42324932073236;41.74824249745424
46382;BME280;66809;52.974;-2.514;2023-06-24T02:47:52;1014.6120083379105;;;18.411577887872593;41.75821507572814
46382;BME280;66809;52.974;-2.514;2023-06-24T02:49:52;1014.5947152151986;;;18.391581782383074;41.77426941490477
46382;BME280;66809;52.974;-2.514;2023-06-24T02:51:51;1014.5766091038828;;;18.39126084756272;41.79480198207102
46382;BME280;66809;52.974;-2.514;2023-06-24T02:53:51;1014.5579690650151;;;18.392074287680675;41.80935444809014
46382;BME280;66809;52.974;-2.514;2023-06-24T02:55:51;1014.540196209317;;;18.375772949751028;41.82380416160259
46382;BME280;66809;52.974;-2.514;2023-06-24T02:57:51;1014.5234347863313;;;18.366852712069367;41.83686460982391
46382;BME280;66809;52.974;-2.514;2023-06-24T02:59:51;1014.508996002944;;;18.34967502410207;41.851520999057676
46382;BME280;66809;52.974;-2.514;2023-06-24T03:01:51;1014.4955104397452;;;18.328304370364485;41.870757510528065
46382;BME280;66809;52.974;-2.514;2023-06-24T03:03:52;1014.4827696615151;;;18.310505305842934;41.88920215603795
46382;BME280;66809;52.974;-2.514;2023-06-24T03:05:52;1014.4707200992725;;;18.287588990077428;41.911024005698415
46382;BME280;66809;52.974;-2.514;2023-06-24T03:07:51;1014.457275545248;;;18.263504718296655;41.93801341103555
46382;BME280;66809;52.974;-2.514;2023-06-24T03:09:51;1014.4421042687966;;;18.243409296613937;41.96490254840122
46382;BME280;66809;52.974;-2.514;2023-06-24T03:11:52;1014.4264894921538;;;18.217535230971702;41.999066475264385
46382;BME280;66809;52.974;-2.514;2023-06-24T03:13:51;1014.4117619263859;;;18.19454617072944;42.03004758095522
46382;BME280;66809;52.974;-2.514;2023-06-24T03:15:51;1014.395781828773;;;18.17768026177553;42.06092596894055
46382;BME280;66809;52.974;-2.514;2023-06-24T03:17:51;1014.3808631378778;;;18.162719321639177;42.08951538556055
46382;BME280;66809;52.974;-2.514;2023-06-24T03:19:51;1014.3660834493731;;;18.143531371887697;42.12508845854695
46382;BME280;66809;52.974;-2.514;2023-06-24T03:21:51;1014.3503530792124;;;18.12600959837295;42.14721448699558
46382;BME280;66809;52.974;-2.514;2023-06-24T03:23:51;1014.3359956183672;;;18.115425605660285;42.162971986505426
46382;BME280;66809;52.974;-2.514;2023-06-24T03:25:51;1014.3199085434478;;;18.09714119921848;42.175047837868405
46382;BME280;66809;52.974;-2.514;2023-06-24T03:27:51;1014.3037987657412;;;18.069355749434337;42.18751614007024
46382;BME280;66809;52.974;-2.514;2023-06-24T03:29:51;1014.286422855425;;;18.03558467997993;42.202276495823725
46382;BME280;66809;52.974;-2.514;2023-06-24T03:31:51;1014.2707408411653;;;18.014163602819306;42.21833415564661
46382;BME280;66809;52.974;-2.514;2023-06-24T03:33:51;1014.2555760516177;;;17.999873996937712;42.23300120505332
46382;BME280;66809;52.974;-2.514;2023-06-24T03:35:51;1014.2421438537056;;;17.98256185846345;42.24806421895917
46382;BME280;66809;52.974;-2.514;2023-06-24T03:37:51;1014.2305987253409;;;17.981582632059077;42.2531583520274
46382;BME280;66809;52.974;-2.514;2023-06-24T03:39:51;1014.2212861439889;;;17.970785085296747;42.25296794386069
46382;BME280;66809;52.974;-2.514;2023-06-24T03:41:51;1014.2128537979438;;;17.955485709342124;42.243204567024215
46382;BME280;66809;52.974;-2.514;2023-06-24T03:43:51;1014.2066617162268;;;17.945575372443468;42.22157590826662
46382;BME280;66809;52.974;-2.514;2023-06-24T03:45:51;1014.2003316947477;;;17.943527557469363;42.19526355588983
46382;BME280;66809;52.974;-2.514;2023-06-24T03:47:51;1014.1945810177345;;;17.94883809781726;42.16865160477895
46382;BME280;66809;52.974;-2.514;2023-06-24T03:49:51;1014.1877829742032;;;17.95354609585668;42.14054211252764
46382;BME280;66809;52.974;-2.514;2023-06-24T03:51:51;1014.1822404554981;;;17.95188397775673;42.10186879799845
46382;BME280;66809;52.974;-2.514;2023-06-24T03:53:51;1014.1773054879269;;;17.956966815849302;42.06309079084394
46382;BME280;66809;52.974;-2.514;2023-06-24T03:55:51;1014.1706222512886;;;17.965912258278703;42.01554066131045
46382;BME280;66809;52.974;-2.514;2023-06-24T03:57:51;1014.1634392883882;;;17.974891315356544;41.97605961901697
46382;BME280;66809;52.974;-2.514;2023-06-24T03:59:51;1014.1544651866109;;;17.992203447735815;41.93188886857952
46382;BME280;66809;52.974;-2.514;2023-06-24T04:01:51;1014.1465600766684;;;18.010543168706793;41.87645214713868
46382;BME280;66809;52.974;-2.514;2023-06-24T04:03:51;1014.1366822788099;;;18.030610983152272;41.82359981375919
46382;BME280;66809;52.974;-2.514;2023-06-24T04:05:52;1014.1286256637569;;;18.052790324455366;41.763379351505776
46382;BME280;66809;52.974;-2.514;2023-06-24T04:07:51;1014.1246330289312;;;18.08036421764911;41.69679053798365
46382;BME280;66809;52.974;-2.514;2023-06-24T04:09:51;1014.1230539550818;;;18.105520583167102;41.62491021688575
46382;BME280;66809;52.974;-2.514;2023-06-24T04:11:51;1014.1225017180619;;;18.131315565416184;41.54724580988443
46382;BME280;66809;52.974;-2.514;2023-06-24T04:13:51;1014.1228056949759;;;18.149455234408077;41.46897297019091
46382;BME280;66809;52.974;-2.514;2023-06-24T04:15:51;1014.1241560861989;;;18.16381365266265;41.393107315637
46382;BME280;66809;52.974;-2.514;2023-06-24T04:17:51;1014.1257643188983;;;18.182244939785438;41.32602023845926
46382;BME280;66809;52.974;-2.514;2023-06-24T04:19:51;1014.12804483567;;;18.20436545900295;41.25813045506676
46382;BME280;66809;52.974;-2.514;2023-06-24T04:21:51;1014.1327699370134;;;18.224962649257357;41.19441398696479
46382;BME280;66809;52.974;-2.514;2023-06-24T04:23:51;1014.1378328704741;;;18.237521294974297;41.142851138696074
46382;BME280;66809;52.974;-2.514;2023-06-24T04:25:51;1014.1446067548515;;;18.258645840737092;41.09845728153434
46382;BME280;66809;52.974;-2.514;2023-06-24T04:27:51;1014.1517451791868;;;18.283411232746726;41.04818049345683
46382;BME280;66809;52.974;-2.514;2023-06-24T04:29:51;1014.15954945387;;;18.311756182627295;40.98783229787634
46382;BME280;66809;52.974;-2.514;2023-06-24T04:31:51;1014.166136045811;;;18.330314383107236;40.93656767105315
46382;BME280;66809;52.974;-2.514;2023-06-24T04:33:51;1014.1736732162954;;;18.3449401001543;40.89547244432135
46382;BME280;66809;52.974;-2.514;2023-06-24T04:35:51;1014.1835743722321;;;18.364487377720035;40.8536795902154
46382;BME280;66809;52.974;-2.514;2023-06-24T04:37:51;1014.1940875136032;;;18.37276861826227;40.820453711653194
46382;BME280;66809;52.974;-2.514;2023-06-24T04:39:51;1014.2049742015827;;;18.380809064934006;40.79130747465055
46382;BME280;66809;52.974;-2.514;2023-06-24T04:41:51;1014.2155775399519;;;18.397465838536586;40.765840237178345
46382;BME280;66809;52.974;-2.514;2023-06-24T04:43:51;1014.2261165536136;;;18.419598761264545;40.74953945828245
46382;BME280;66809;52.974;-2.514;2023-06-24T04:45:51;1014.2362817528915;;;18.43929734703372;40.734830715605234
46382;BME280;66809;52.974;-2.514;2023-06-24T04:47:52;1014.2468584041061;;;18.4567103738863;40.722324395300845
46382;BME280;66809;52.974;-2.514;2023-06-24T04:49:51;1014.257938958858;;;18.474675512133256;40.715313463500806
46382;BME280;66809;52.974;-2.514;2023-06-24T04:51:51;1014.2681163036992;;;18.489760979456737;40.71428232231492
46382;BME280;66809;52.974;-2.514;2023-06-24T04:53:51;1014.2794062687906;;;18.497246885912464;40.712746200864856
46382;BME280;66809;52.974;-2.514;2023-06-24T04:55:51;1014.2911158914466;;;18.510494637066746;40.71709195843413
46382;BME280;66809;52.974;-2.514;2023-06-24T04:57:51;1014.3006198857737;;;18.528199309829244;40.72055118685737
46382;BME280;66809;52.974;-2.514;2023-06-24T04:59:51;1014.3096481124754;;;18.530733497027143;40.73229923470083
46382;BME280;66809;52.974;-2.514;2023-06-24T05:01:51;1014.3207874785433;;;18.545797219016713;40.75552191888191
46382;BME280;66809;52.974;-2.514;2023-06-24T05:03:51;1014.3343553081985;;;18.554378947046555;40.7741504434312
46382;BME280;66809;52.974;-2.514;2023-06-24T05:05:51;1014.3467578682139;;;18.5609464906226;40.787984752046775
46382;BME280;66809;52.974;-2.514;2023-06-24T05:07:51;1014.3557627514824;;;18.575298466448732;40.803320327405906
46382;BME280;66809;52.974;-2.514;2023-06-24T05:09:51;1014.3626368587907;;;18.58182151881757;40.82943904412741
46382;BME280;66809;52.974;-2.514;2023-06-24T05:11:51;1014.3676700870711;;;18.592383837141245;40.86234506857958
46382;BME280;66809;52.974;-2.514;2023-06-24T05:13:51;1014.3731595108076;;;18.609052509242915;40.90353093462542
46382;BME280;66809;52.974;-2.514;2023-06-24T05:15:51;1014.3808100914295;;;18.623516211654362;40.94151022434384
46382;BME280;66809;52.974;-2.514;2023-06-24T05:17:51;1014.3886698310582;;;18.643500559650942;40.968405309886855
46382;BME280;66809;52.974;-2.514;2023-06-24T05:19:51;1014.3968632446171;;;18.66610658978756;40.99279850990542
46382;BME280;66809;52.974;-2.514;2023-06-24T05:21:51;1014.4024289408661;;;18.69429800289275;41.01948455439381
46382;BME280;66809;52.974;-2.514;2023-06-24T05:23:51;1014.4078828474935;;;18.72232976121076;41.050066987521255
46382;BME280;66809;52.974;-2.514;2023-06-24T05:25:52;1014.412466850971;;;18.73150985091742;41.08344153390057
46382;BME280;66809;52.974;-2.514;2023-06-24T05:27:51;1014.4177169402702;;;18.747782307120286;41.112824278474136
46382;BME280;66809;52.974;-2.514;2023-06-24T05:29:51;1014.4237794498239;;;18.77402642581873;41.144486639890005
46382;BME280;66809;52.974;-2.514;2023-06-24T05:31:51;1014.4301754778127;;;18.80561760049108;41.16915838388073
46382;BME280;66809;52.974;-2.514;2023-06-24T05:33:51;1014.4338292747556;;;18.831931431617743;41.192838662644164
46382;BME280;66809;52.974;-2.514;2023-06-24T05:35:51;1014.4338424598599;;;18.850379853135255;41.21792204057102
46382;BME280;66809;52.974;-2.514;2023-06-24T05:37:51;1014.432693843517;;;18.865948973597508;41.23582442835107
46382;BME280;66809;52.974;-2.514;2023-06-24T05:39:51;1014.4293497360112;;;18.882596715073458;41.25193359661994
46382;BME280;66809;52.974;-2.514;2023-06-24T05:41:51;1014.42662883643;;;18.901071104164505;41.26884681318515
46382;BME280;66809;52.974;-2.514;2023-06-24T05:44:01;1014.4235243718812;;;18.919820291208044;41.288066145108026
46382;BME280;66809;52.974;-2.514;2023-06-24T05:45:51;1014.4226242321456;;;18.929546983748203;41.30428808959471
46382;BME280;66809;52.974;-2.514;2023-06-24T05:47:51;1014.4229263088585;;;18.939769085329335;41.31361015068883
46382;BME280;66809;52.974;-2.514;2023-06-24T05:49:51;1014.4280596192608;;;18.970444410226232;41.30953293512777
46382;BME280;66809;52.974;-2.514;2023-06-24T05:51:51;1014.4362157058591;;;18.990976834058852;41.30105865950398
46382;BME280;66809;52.974;-2.514;2023-06-24T05:53:51;1014.4449715359646;;;19.01863240325845;41.29687074557618
46382;BME280;66809;52.974;-2.514;2023-06-24T05:55:51;1014.454722085746;;;19.05926824458938;41.29377813178767
46382;BME280;66809;52.974;-2.514;2023-06-24T05:57:51;1014.4647338539992;;;19.09855624989493;41.289573641653305
46382;BME280;66809;52.974;-2.514;2023-06-24T05:59:51;1014.4747593861523;;;19.145017433961886;41.28496339839269
46382;BME280;66809;52.974;-2.514;2023-06-24T06:01:51;1014.4820934912713;;;19.183259810815464;41.273951541887264
46382;BME280;66809;52.974;-2.514;2023-06-24T06:03:51;1014.4883074036028;;;19.23569808020863;41.25409763335452
46382;BME280;66809;52.974;-2.514;2023-06-24T06:05:51;1014.4917363929891;;;19.29409993155508;41.22580748934825
46382;BME280;66809;52.974;-2.514;2023-06-24T06:07:51;1014.4964260446775;;;19.339736994588648;41.19001008445437
46382;BME280;66809;52.974;-2.514;2023-06-24T06:09:51;1014.5023423740225;;;19.406110656957924;41.15222672809812
46382;BME280;66809;52.974;-2.514;2023-06-24T06:11:51;1014.5112999756419;;;19.462859681187176;41.09682706528623
46382;BME280;66809;52.974;-2.514;2023-06-24T06:13:51;1014.5214284011856;;;19.510799165680886;41.05085287043827
46382;BME280;66809;52.974;-2.514;2023-06-24T06:15:51;1014.5293521193605;;;19.569646441424403;41.00007566878135
46382;BME280;66809;52.974;-2.514;2023-06-24T06:17:52;1014.5359372377308;;;19.608575238880345;40.97072615001344
46382;BME280;66809;52.974;-2.514;2023-06-24T06:19:51;1014.5407042482998;;;19.65460228021816;40.951081407128704
46382;BME280;66809;52.974;-2.514;2023-06-24T06:21:51;1014.5459244246637;;;19.692640699396165;40.92984185413717
46382;BME280;66809;52.974;-2.514;2023-06-24T06:23:51;1014.5522340258038;;;19.727628846695097;40.902822230280634
46382;BME280;66809;52.974;-2.514;2023-06-24T06:25:51;1014.5591130076832;;;19.786247385370764;40.87921180178303
46382;BME280;66809;52.974;-2.514;2023-06-24T06:27:51;1014.565759031615;;;19.833095726951292;40.85699519969328
46382;BME280;66809;52.974;-2.514;2023-06-24T06:29:51;1014.5716900052341;;;19.873190717061373;40.8483827138348
46382;BME280;66809;52.974;-2.514;2023-06-24T06:31:51;1014.5787518717584;;;19.90551272696729;40.84077919714295
46382;BME280;66809;52.974;-2.514;2023-06-24T06:33:51;1014.5880466385629;;;19.956165114586682;40.8302760657761
46382;BME280;66809;52.974;-2.514;2023-06-24T06:35:51;1014.59913681048;;;20.012609968067537;40.81816708167146
46382;BME280;66809;52.974;-2.514;2023-06-24T06:37:51;1014.6103756177698;;;20.065458059929924;40.809848289976905
46382;BME280;66809;52.974;-2.514;2023-06-24T06:39:51;1014.6230599413881;;;20.120258490967046;40.81203610143087
46382;BME280;66809;52.974;-2.514;2023-06-24T06:41:51;1014.6345017338641;;;20.163630058875697;40.81750825380399
46382;BME280;66809;52.974;-2.514;2023-06-24T06:43:51;1014.6453620326786;;;20.20579414288013;40.81867231209159
46382;BME280;66809;52.974;-2.514;2023-06-24T06:45:51;1014.6551849381548;;;20.25775380977013;40.82484190518068
46382;BME280;66809;52.974;-2.514;2023-06-24T06:47:51;1014.6639762870893;;;20.310949043412386;40.830711234390996
46382;BME280;66809;52.974;-2.514;2023-06-24T06:49:51;1014.6709366556182;;;20.34822020408873;40.838673463388574
46382;BME280;66809;52.974;-2.514;2023-06-24T06:51:53;1014.6771475379778;;;20.388970524111905;40.84613662553758
46382;BME280;66809;52.974;-2.514;2023-06-24T06:53:51;1014.6816577108314;;;20.436477177788383;40.85710945260241
46382;BME280;66809;52.974;-2.514;2023-06-24T06:55:51;1014.6857129356256;;;20.47931134252891;40.86717079236497
46382;BME280;66809;52.974;-2.514;2023-06-24T06:57:51;1014.6900195182144;;;20.52384559010909;40.865582321192484
46382;BME280;66809;52.974;-2.514;2023-06-24T06:59:51;1014.6967037104408;;;20.585158381460346;40.84370820675717
46382;BME280;66809;52.974;-2.514;2023-06-24T07:01:51;1014.7038619228528;;;20.64969806062513;40.80483521785559
46382;BME280;66809;52.974;-2.514;2023-06-24T07:03:51;1014.7105917150386;;;20.695994326090855;40.776857597764234
46382;BME280;66809;52.974;-2.514;2023-06-24T07:05:51;1014.7196211535887;;;20.742825829765714;40.765323849439945
46382;BME280;66809;52.974;-2.514;2023-06-24T07:07:51;1014.7290864886867;;;20.803749795040275;40.75296848576859
46382;BME280;66809;52.974;-2.514;2023-06-24T07:09:51;1014.7388213066796;;;20.848951135043922;40.73791956118496